Time;durP1;ratioP1;P1;durP2;ratioP2;P2;SDS_P1;SDS_P2;PMS_P1;PMS_P2;Temp;Humidity;BMP_temperature;BMP_pressure;BME280_temperature;BME280_humidity;BME280_pressure;Samples;Min_cycle;Max_cycle;Signal;HPM_P1;HPM_P2
2022/12/15 00:40:34;;;;;;;29.20;12.63;;;-2.80;99.90;;;;;;5044038;28;20064;-82
2022/12/15 00:43:00;;;;;;;26.65;13.00;;;-2.20;99.90;;;;;;5041521;28;20044;-82
2022/12/15 00:46:53;;;;;;;26.48;11.95;;;-2.50;99.90;;;;;;5041124;28;20040;-80
2022/12/15 00:48:12;;;;;;;25.63;12.77;;;-2.70;99.90;;;;;;5029869;28;20105;-82
2022/12/15 00:50:53;;;;;;;24.77;11.30;;;-2.80;99.90;;;;;;5041136;28;20377;-82
2022/12/15 01:21:00;;;;;;;25.13;11.15;;;-3.20;99.90;;;;;;5057352;28;20045;-81
2022/12/15 01:23:26;;;;;;;30.48;11.63;;;-2.80;99.90;;;;;;5057157;28;20036;-82
2022/12/15 01:25:53;;;;;;;28.05;12.30;;;-3.10;99.90;;;;;;5040460;28;20072;-82
2022/12/15 01:28:20;;;;;;;24.63;11.35;;;-3.10;99.90;;;;;;5040744;28;20048;-82
2022/12/15 01:30:46;;;;;;;22.73;9.70;;;-3.00;99.90;;;;;;5057411;28;20101;-81
2022/12/15 01:33:13;;;;;;;26.02;10.90;;;-2.90;99.90;;;;;;5024553;28;20194;-83
2022/12/15 01:35:39;;;;;;;19.27;8.82;;;-2.80;99.90;;;;;;5040481;28;20040;-82
2022/12/15 01:38:05;;;;;;;25.67;11.85;;;-2.70;99.90;;;;;;5040480;28;20139;-82
2022/12/15 01:40:48;;;;;;;21.45;10.65;;;-2.60;99.90;;;;;;5056630;28;20083;-83
2022/12/15 01:43:26;;;;;;;27.25;10.23;;;-2.70;99.90;;;;;;5056600;28;20050;-82
2022/12/15 01:45:57;;;;;;;22.98;10.63;;;-2.80;99.90;;;;;;5057481;28;20467;-82
2022/12/15 01:48:59;;;;;;;23.65;11.45;;;-2.80;99.90;;;;;;5056347;28;20042;-81
2022/12/15 01:51:27;;;;;;;26.88;12.32;;;-2.90;99.90;;;;;;5057394;28;20044;-84
2022/12/15 01:54:18;;;;;;;24.83;11.90;;;-3.00;99.90;;;;;;5040684;28;20048;-81
2022/12/15 01:56:48;;;;;;;24.40;11.45;;;-2.90;99.90;;;;;;5057375;28;20044;-81
2022/12/15 01:59:22;;;;;;;27.40;11.38;;;-2.90;99.90;;;;;;5040617;28;20064;-80
2022/12/15 02:01:48;;;;;;;31.13;12.60;;;-3.10;99.90;;;;;;5040477;28;20048;-81
2022/12/15 02:04:16;;;;;;;28.00;11.82;;;-2.40;99.90;;;;;;5040385;28;20045;-80
2022/12/15 02:06:44;;;;;;;23.65;11.88;;;-3.10;99.90;;;;;;5057182;28;20045;-80
2022/12/15 02:09:10;;;;;;;26.75;11.60;;;-3.10;99.90;;;;;;5056550;28;20044;-80
2022/12/15 02:11:45;;;;;;;26.58;11.20;;;-3.10;99.90;;;;;;5056659;28;20056;-80
2022/12/15 02:14:19;;;;;;;26.05;12.23;;;-2.40;99.90;;;;;;5040333;28;20059;-80
2022/12/15 02:17:21;;;;;;;26.60;12.00;;;-3.20;99.90;;;;;;5053232;28;20119;-81
2022/12/15 02:20:25;;;;;;;31.02;11.65;;;-3.20;99.90;;;;;;4987522;28;20131;-80
2022/12/15 02:23:14;;;;;;;27.35;12.02;;;-3.30;99.90;;;;;;5053398;28;20166;-81
2022/12/15 02:26:14;;;;;;;29.63;12.13;;;-3.30;99.90;;;;;;5036726;28;20186;-80
2022/12/15 02:28:59;;;;;;;27.80;11.02;;;-3.30;99.90;;;;;;5036008;28;20033;-81
2022/12/15 02:31:48;;;;;;;31.05;12.23;;;-3.30;99.90;;;;;;5053198;28;20491;-80
2022/12/15 02:34:35;;;;;;;36.10;13.73;;;-3.40;99.90;;;;;;5041539;28;20132;-81
2022/12/15 02:37:06;;;;;;;33.50;12.75;;;-3.40;99.90;;;;;;5058306;28;20446;-81
2022/12/15 02:39:32;;;;;;;24.85;11.25;;;-3.40;99.90;;;;;;5059036;28;20045;-86
2022/12/15 02:41:58;;;;;;;27.90;11.30;;;-3.40;99.90;;;;;;5058662;28;20087;-81
2022/12/15 02:44:34;;;;;;;30.75;12.57;;;-3.50;99.90;;;;;;5058097;28;20053;-80
2022/12/15 02:47:21;;;;;;;26.17;11.38;;;-3.40;99.90;;;;;;5041321;28;20045;-80
2022/12/15 02:50:17;;;;;;;31.92;12.75;;;-3.40;99.90;;;;;;5057804;28;20041;-79
2022/12/15 02:53:08;;;;;;;25.80;10.98;;;-3.40;99.90;;;;;;5057760;28;20044;-80
2022/12/15 02:55:57;;;;;;;27.50;11.93;;;-3.40;99.90;;;;;;5041250;28;20131;-87
2022/12/15 02:58:45;;;;;;;29.65;11.27;;;-3.40;99.90;;;;;;5057939;28;20629;-80
2022/12/15 03:01:19;;;;;;;20.25;9.00;;;-3.50;99.90;;;;;;5057354;28;20327;-80
2022/12/15 03:03:47;;;;;;;32.25;11.85;;;-3.40;99.90;;;;;;5057500;28;20149;-81
2022/12/15 03:06:14;;;;;;;34.28;12.48;;;-2.50;99.90;;;;;;5024497;28;20049;-81
2022/12/15 03:08:39;;;;;;;28.67;12.10;;;-3.50;99.90;;;;;;5057759;28;20048;-81
2022/12/15 03:11:05;;;;;;;31.30;12.75;;;-3.40;99.90;;;;;;5057692;28;20037;-83
2022/12/15 03:13:31;;;;;;;31.58;13.05;;;-3.50;99.90;;;;;;5041398;28;20124;-80
2022/12/15 03:15:59;;;;;;;25.60;11.07;;;-3.50;99.90;;;;;;5057300;28;20088;-81
2022/12/15 03:18:25;;;;;;;29.70;12.13;;;-3.50;99.90;;;;;;5040898;28;20515;-81
2022/12/15 03:20:52;;;;;;;25.77;10.60;;;-3.50;99.90;;;;;;5024928;28;20494;-81
2022/12/15 03:23:18;;;;;;;28.02;12.02;;;-3.40;99.90;;;;;;5057251;28;20084;-82
2022/12/15 03:25:45;;;;;;;29.67;11.50;;;-3.40;99.90;;;;;;5040807;28;20055;-81
2022/12/15 03:28:11;;;;;;;26.95;11.80;;;-3.30;99.90;;;;;;5057323;28;20484;-80
2022/12/15 03:30:37;;;;;;;30.00;11.43;;;-3.30;99.90;;;;;;5057569;28;20086;-81
2022/12/15 03:33:03;;;;;;;28.65;11.48;;;-3.20;99.90;;;;;;5056903;28;20045;-81
2022/12/15 03:35:29;;;;;;;27.40;11.73;;;-3.20;99.90;;;;;;5057903;28;20043;-80
2022/12/15 03:37:55;;;;;;;29.73;11.75;;;-3.10;99.90;;;;;;5040146;28;20037;-81
2022/12/15 03:40:21;;;;;;;28.00;11.48;;;-2.80;99.90;;;;;;5041065;28;20056;-81
2022/12/15 03:42:47;;;;;;;28.08;11.77;;;-3.00;99.90;;;;;;5040141;28;20055;-81
2022/12/15 03:45:18;;;;;;;25.98;11.07;;;-2.90;99.90;;;;;;5040387;28;20069;-81
2022/12/15 03:47:45;;;;;;;29.02;12.77;;;-3.00;99.90;;;;;;5040516;28;20044;-82
2022/12/15 03:50:13;;;;;;;22.75;10.57;;;-3.00;99.90;;;;;;5040703;28;20051;-81
2022/12/15 03:52:39;;;;;;;22.70;10.32;;;-3.00;99.90;;;;;;5040585;28;20048;-81
2022/12/15 03:55:06;;;;;;;22.30;9.85;;;-3.10;99.90;;;;;;5056692;28;20056;-81
2022/12/15 03:57:32;;;;;;;25.83;11.40;;;-3.40;99.90;;;;;;5056639;28;20045;-82
2022/12/15 03:59:58;;;;;;;28.48;11.55;;;-2.60;99.90;;;;;;5056780;28;20051;-83
2022/12/15 04:02:24;;;;;;;22.65;11.55;;;-3.20;99.90;;;;;;5039595;28;20110;-82
2022/12/15 04:04:50;;;;;;;25.80;10.43;;;-3.20;99.90;;;;;;5023376;28;20045;-84
2022/12/15 04:07:16;;;;;;;24.98;10.25;;;-3.20;99.90;;;;;;5023918;28;20038;-82
2022/12/15 04:09:42;;;;;;;19.50;10.00;;;-3.10;99.90;;;;;;5056805;28;20041;-81
2022/12/15 04:12:10;;;;;;;24.42;10.60;;;-3.40;99.90;;;;;;5056639;28;20079;-82
2022/12/15 04:14:41;;;;;;;20.15;10.68;;;-3.40;99.90;;;;;;5056632;28;20045;-82
2022/12/15 04:17:11;;;;;;;23.90;9.85;;;-3.50;99.90;;;;;;5039493;28;20085;-80
2022/12/15 04:22:22;;;;;;;21.80;9.45;;;-2.80;99.90;;;;;;5057151;28;20052;-81
2022/12/15 05:33:23;;;;;;;25.17;11.82;;;-2.80;99.90;;;;;;5039973;28;20069;-83
2022/12/15 05:35:49;;;;;;;26.48;10.27;;;-2.90;99.90;;;;;;5037060;28;20047;-85
2022/12/15 05:38:15;;;;;;;25.50;11.13;;;-2.90;99.90;;;;;;5016559;28;20045;-86
2022/12/15 05:40:41;;;;;;;24.73;11.95;;;-1.80;99.90;;;;;;5018011;28;20274;-85
2022/12/15 05:43:06;;;;;;;21.27;10.13;;;-2.90;99.90;;;;;;5001036;28;20041;-84
2022/12/15 05:45:32;;;;;;;25.48;11.23;;;-2.90;99.90;;;;;;5017724;28;20107;-84
2022/12/15 05:48:01;;;;;;;24.17;10.50;;;-2.40;99.90;;;;;;5018877;28;20124;-83
2022/12/15 05:50:27;;;;;;;24.98;10.63;;;-2.80;99.90;;;;;;5035342;28;20045;-83
2022/12/15 05:52:53;;;;;;;22.50;10.38;;;-2.80;99.90;;;;;;5003559;28;20071;-83
2022/12/15 05:55:18;;;;;;;20.33;10.55;;;-2.50;99.90;;;;;;5035805;28;20143;-82
2022/12/15 05:57:51;;;;;;;23.98;11.43;;;-2.30;99.90;;;;;;5034742;28;20077;-84
2022/12/15 06:00:17;;;;;;;20.85;9.45;;;-2.70;99.90;;;;;;5035571;28;20120;-82
2022/12/15 06:02:42;;;;;;;20.88;9.82;;;-2.80;99.90;;;;;;5019541;28;20534;-83
2022/12/15 06:05:08;;;;;;;24.30;10.77;;;-1.90;99.90;;;;;;5003554;28;20041;-83
2022/12/15 06:07:36;;;;;;;23.67;9.88;;;-2.70;99.90;;;;;;5022285;28;20047;-84
2022/12/15 06:10:03;;;;;;;21.25;9.98;;;-2.70;99.90;;;;;;5023716;28;20045;-88
2022/12/15 06:12:29;;;;;;;21.33;9.98;;;-2.60;99.90;;;;;;5023729;28;20053;-83
2022/12/15 06:14:54;;;;;;;22.25;8.75;;;-2.10;99.90;;;;;;5007074;28;20050;-82
2022/12/15 06:17:20;;;;;;;21.20;9.82;;;-2.50;99.90;;;;;;5038587;28;20082;-82
2022/12/15 06:19:46;;;;;;;25.20;9.48;;;-2.50;99.90;;;;;;5010292;28;20037;-85
2022/12/15 06:22:12;;;;;;;20.85;9.27;;;-2.50;99.90;;;;;;5043268;28;20040;-83
2022/12/15 06:24:38;;;;;;;17.38;8.07;;;-2.50;99.90;;;;;;5026632;28;20542;-83
2022/12/15 06:27:04;;;;;;;19.55;8.88;;;-2.60;99.90;;;;;;5026241;28;20044;-87
2022/12/15 06:29:29;;;;;;;23.77;9.55;;;-2.50;99.90;;;;;;5059663;28;20041;-83
2022/12/15 06:31:55;;;;;;;20.35;9.70;;;-2.40;99.90;;;;;;5026225;28;20045;-84
2022/12/15 06:34:21;;;;;;;21.48;8.75;;;-2.40;99.90;;;;;;5025833;28;20080;-82
2022/12/15 06:36:47;;;;;;;18.52;8.75;;;-2.40;99.90;;;;;;5058131;28;20426;-84
2022/12/15 06:39:14;;;;;;;20.27;9.52;;;-2.50;99.90;;;;;;5041968;28;20040;-84
2022/12/15 06:41:41;;;;;;;17.98;8.07;;;-2.40;99.90;;;;;;5042724;28;20098;-84
2022/12/15 06:44:06;;;;;;;15.82;7.00;;;-1.70;99.90;;;;;;5042168;28;20048;-86
2022/12/15 06:46:35;;;;;;;14.93;7.63;;;-2.30;99.90;;;;;;5059268;28;20144;-83
2022/12/15 06:49:01;;;;;;;16.73;8.10;;;-2.30;99.90;;;;;;5042103;28;20479;-84
2022/12/15 06:51:27;;;;;;;21.08;8.13;;;-2.00;99.90;;;;;;5058806;28;20049;-83
2022/12/15 06:53:54;;;;;;;19.05;9.20;;;-2.30;99.90;;;;;;5058250;28;20480;-85
2022/12/15 06:56:23;;;;;;;20.83;8.93;;;-2.30;99.90;;;;;;5041560;28;20106;-83
2022/12/15 06:58:51;;;;;;;18.55;9.77;;;-1.30;99.90;;;;;;5058851;28;20052;-84
2022/12/15 07:01:19;;;;;;;19.63;9.77;;;-2.30;99.90;;;;;;5025075;28;20051;-84
2022/12/15 07:03:45;;;;;;;23.10;9.55;;;-2.40;99.90;;;;;;5041761;28;20453;-83
2022/12/15 07:06:13;;;;;;;17.27;8.20;;;-2.30;99.90;;;;;;5057281;28;20114;-84
2022/12/15 07:08:39;;;;;;;17.95;8.00;;;-2.40;99.90;;;;;;5057426;28;20033;-83
2022/12/15 07:11:07;;;;;;;17.65;8.57;;;-2.40;99.90;;;;;;5056776;28;20045;-84
2022/12/15 07:13:33;;;;;;;20.75;8.55;;;-2.40;99.90;;;;;;5040950;28;20037;-83
2022/12/15 07:16:00;;;;;;;17.25;7.97;;;-2.50;99.90;;;;;;5056502;28;20490;-84
2022/12/15 07:18:28;;;;;;;16.83;7.57;;;-2.20;99.90;;;;;;5039085;28;20364;-83
2022/12/15 07:20:54;;;;;;;12.65;6.60;;;-2.40;99.90;;;;;;5056849;28;20118;-84
2022/12/15 07:23:21;;;;;;;17.25;7.78;;;-2.20;99.90;;;;;;5040195;28;20064;-85
2022/12/15 07:25:46;;;;;;;17.42;8.35;;;-2.10;99.90;;;;;;5039579;28;20045;-84
2022/12/15 07:28:12;;;;;;;17.20;8.50;;;-2.20;99.90;;;;;;5023446;28;20102;-83
2022/12/15 07:30:38;;;;;;;17.80;8.68;;;-2.20;99.90;;;;;;5023720;28;20493;-82
2022/12/15 07:33:04;;;;;;;16.60;7.45;;;-2.20;99.90;;;;;;5039595;28;20127;-83
2022/12/15 07:35:31;;;;;;;18.48;8.25;;;-2.20;99.90;;;;;;5057045;28;20044;-84
2022/12/15 07:37:56;;;;;;;17.42;7.75;;;-1.20;99.90;;;;;;5023267;28;20360;-85
2022/12/15 07:40:22;;;;;;;20.92;8.80;;;-2.10;99.90;;;;;;5040178;28;20052;-84
2022/12/15 07:42:48;;;;;;;13.63;6.30;;;-2.10;99.90;;;;;;5023910;28;20041;-83
2022/12/15 07:45:14;;;;;;;13.27;6.72;;;-0.90;99.90;;;;;;5023879;28;20047;-84
2022/12/15 07:47:40;;;;;;;14.07;7.18;;;-2.10;99.90;;;;;;5039628;28;20040;-84
2022/12/15 07:50:12;;;;;;;16.40;8.02;;;-2.10;99.90;;;;;;5041028;28;20048;-84
2022/12/15 07:52:37;;;;;;;14.43;7.20;;;-2.10;99.90;;;;;;5040076;28;20040;-84
2022/12/15 07:55:04;;;;;;;15.55;7.45;;;-2.20;99.90;;;;;;5039831;28;20068;-83
2022/12/15 07:57:31;;;;;;;15.95;6.93;;;-2.20;99.90;;;;;;5022879;28;20095;-80
2022/12/15 07:59:57;;;;;;;17.45;7.47;;;-2.10;99.90;;;;;;5039285;28;20048;-83
2022/12/15 08:02:23;;;;;;;15.93;7.43;;;-2.10;99.90;;;;;;5023128;28;20528;-83
2022/12/15 08:04:49;;;;;;;14.45;6.43;;;-2.10;99.90;;;;;;5056636;28;20037;-82
2022/12/15 08:07:16;;;;;;;16.38;8.38;;;-2.10;99.90;;;;;;5022988;28;20067;-83
2022/12/15 08:09:41;;;;;;;19.67;8.88;;;-2.00;99.90;;;;;;5056141;28;20037;-83
2022/12/15 08:12:07;;;;;;;14.95;6.85;;;-1.90;99.90;;;;;;5039146;28;20056;-81
2022/12/15 08:14:33;;;;;;;26.48;8.32;;;-1.90;99.90;;;;;;5055627;28;20040;-82
2022/12/15 08:16:59;;;;;;;20.00;8.23;;;-1.90;99.90;;;;;;5022437;28;20045;-82
2022/12/15 08:19:25;;;;;;;16.85;7.90;;;-0.80;99.90;;;;;;5022803;28;20520;-83
2022/12/15 08:21:51;;;;;;;16.23;7.28;;;-1.30;99.90;;;;;;5056315;28;20094;-83
2022/12/15 08:24:18;;;;;;;19.33;6.80;;;-1.00;99.90;;;;;;5055872;28;20430;-84
2022/12/15 08:26:44;;;;;;;17.35;8.45;;;-1.00;99.90;;;;;;5056190;28;20071;-83
2022/12/15 08:29:12;;;;;;;18.25;8.15;;;-1.80;99.90;;;;;;5055942;28;20043;-84
2022/12/15 08:31:38;;;;;;;16.10;8.50;;;-1.80;99.90;;;;;;5038186;28;20049;-83
2022/12/15 08:34:05;;;;;;;24.73;8.43;;;-1.70;99.90;;;;;;5054436;28;20044;-83
2022/12/15 08:36:31;;;;;;;16.95;8.35;;;-1.70;99.90;;;;;;5054545;28;20463;-81
2022/12/15 08:38:59;;;;;;;18.52;8.80;;;-1.70;99.90;;;;;;5037936;28;20361;-84
2022/12/15 08:41:27;;;;;;;18.98;8.90;;;-0.50;99.90;;;;;;5054318;28;20162;-84
2022/12/15 08:43:55;;;;;;;14.55;8.18;;;-1.60;99.90;;;;;;5038065;28;20187;-83
2022/12/15 08:46:27;;;;;;;16.45;8.55;;;-1.50;99.90;;;;;;5039320;28;20135;-84
2022/12/15 08:48:53;;;;;;;18.55;8.45;;;-1.50;99.90;;;;;;5038676;28;20044;-86
2022/12/15 08:51:21;;;;;;;20.42;8.93;;;-1.40;99.90;;;;;;5039158;28;20040;-84
2022/12/15 08:53:47;;;;;;;12.55;4.70;;;-1.40;99.90;;;;;;5055373;28;20041;-84
2022/12/15 08:56:17;;;;;;;11.73;5.50;;;-1.30;99.90;;;;;;5055100;28;20132;-86
2022/12/15 08:58:45;;;;;;;12.90;6.00;;;-1.30;99.90;;;;;;5038208;28;20040;-83
2022/12/15 09:01:13;;;;;;;20.40;8.35;;;-1.20;99.90;;;;;;5055506;28;20044;-83
2022/12/15 09:03:39;;;;;;;15.50;8.10;;;-1.10;99.90;;;;;;5037888;28;20041;-84
2022/12/15 09:06:07;;;;;;;14.43;6.40;;;-1.00;99.90;;;;;;5038376;28;20437;-84
2022/12/15 09:08:34;;;;;;;18.30;8.80;;;-1.00;99.90;;;;;;5055096;28;20037;-84
2022/12/15 09:11:01;;;;;;;9.13;4.88;;;-0.60;99.90;;;;;;5022092;28;20041;-84
2022/12/15 09:13:27;;;;;;;18.95;8.50;;;-0.40;99.90;;;;;;5038133;28;20045;-86
2022/12/15 09:16:01;;;;;;;21.52;8.77;;;-0.80;99.90;;;;;;5037797;28;20056;-83
2022/12/15 09:18:28;;;;;;;14.27;7.40;;;-0.70;99.90;;;;;;5054728;28;20048;-87
2022/12/15 09:20:54;;;;;;;15.23;7.35;;;-0.60;99.90;;;;;;5021999;28;20509;-84
2022/12/15 09:23:21;;;;;;;21.42;10.15;;;-0.50;99.90;;;;;;5038371;28;20114;-83
2022/12/15 09:25:47;;;;;;;16.08;8.88;;;0.50;99.90;;;;;;5037280;28;20355;-82
2022/12/15 09:28:13;;;;;;;17.17;9.13;;;-0.30;99.90;;;;;;5021634;28;20124;-81
2022/12/15 09:30:39;;;;;;;18.58;8.55;;;-0.30;99.90;;;;;;5037476;28;20102;-82
2022/12/15 09:33:05;;;;;;;15.45;9.18;;;-0.20;99.90;;;;;;5054575;28;20491;-81
2022/12/15 09:35:31;;;;;;;17.52;9.27;;;-0.10;99.90;;;;;;5022364;28;20047;-82
2022/12/15 09:37:57;;;;;;;15.73;9.10;;;0.20;99.90;;;;;;5038385;28;20387;-81
2022/12/15 09:40:24;;;;;;;17.40;8.80;;;0.00;99.90;;;;;;5055241;28;20552;-80
2022/12/15 09:42:55;;;;;;;16.50;8.30;;;0.10;99.90;;;;;;5054637;28;20111;-80
2022/12/15 09:45:25;;;;;;;19.35;9.07;;;0.10;99.90;;;;;;5054606;28;20132;-80
2022/12/15 09:48:00;;;;;;;20.20;9.77;;;0.10;99.90;;;;;;5036345;28;20556;-80
2022/12/15 09:50:43;;;;;;;17.23;8.77;;;0.20;99.90;;;;;;5036214;28;20045;-82
2022/12/15 09:53:13;;;;;;;14.95;5.97;;;0.20;99.90;;;;;;5053332;28;20048;-81
2022/12/15 09:55:39;;;;;;;16.58;7.85;;;0.20;99.90;;;;;;5052617;28;20060;-83
2022/12/15 09:58:41;;;;;;;15.63;7.10;;;0.30;99.90;;;;;;5037064;28;20037;-80
2022/12/15 10:01:29;;;;;;;19.00;9.50;;;0.40;99.90;;;;;;5036902;28;20049;-81
2022/12/15 10:04:24;;;;;;;17.90;8.88;;;0.50;99.90;;;;;;5036514;28;20052;-82
2022/12/15 10:07:14;;;;;;;19.52;9.68;;;0.60;99.90;;;;;;5015350;28;20111;-80
2022/12/15 10:09:40;;;;;;;14.75;7.90;;;0.80;99.90;;;;;;5053243;28;20080;-81
2022/12/15 10:12:14;;;;;;;13.07;6.85;;;0.90;99.90;;;;;;5019744;28;20073;-82
2022/12/15 10:15:01;;;;;;;21.30;8.20;;;1.10;99.90;;;;;;5053212;28;20413;-81
2022/12/15 10:17:48;;;;;;;21.40;9.70;;;1.20;99.90;;;;;;5035337;28;20048;-80
2022/12/15 10:20:19;;;;;;;22.02;9.40;;;1.40;99.90;;;;;;5036209;28;20171;-80
2022/12/15 10:22:46;;;;;;;23.08;10.98;;;2.40;99.90;;;;;;5036018;28;20058;-80
2022/12/15 10:25:26;;;;;;;19.20;8.55;;;1.50;99.90;;;;;;5052975;28;20567;-81
2022/12/15 10:28:01;;;;;;;14.30;8.85;;;1.50;99.90;;;;;;5052725;28;20391;-82
2022/12/15 10:30:27;;;;;;;13.63;7.85;;;1.60;99.90;;;;;;5036008;28;20056;-81
2022/12/15 10:33:01;;;;;;;17.63;7.60;;;1.70;99.90;;;;;;5035896;28;20044;-81
2022/12/15 10:35:33;;;;;;;14.23;7.22;;;1.70;99.90;;;;;;5035984;28;20044;-81
2022/12/15 10:38:04;;;;;;;13.50;8.25;;;1.80;99.90;;;;;;5052395;28;20053;-82
2022/12/15 10:40:45;;;;;;;14.13;8.02;;;1.80;99.90;;;;;;5035377;28;20071;-82
2022/12/15 10:43:22;;;;;;;12.65;7.05;;;2.40;99.90;;;;;;5052593;28;20045;-81
2022/12/15 10:45:49;;;;;;;15.73;7.95;;;1.90;99.90;;;;;;5052085;28;20048;-80
2022/12/15 10:48:20;;;;;;;12.75;7.55;;;2.00;99.90;;;;;;5034680;28;20037;-80
2022/12/15 10:50:46;;;;;;;14.82;7.88;;;2.10;99.90;;;;;;5035446;28;20078;-80
2022/12/15 10:53:42;;;;;;;12.57;7.22;;;2.60;99.90;;;;;;5002558;28;20504;-80
2022/12/15 10:56:13;;;;;;;13.93;7.43;;;2.20;99.90;;;;;;5038746;28;20094;-80
2022/12/15 10:58:52;;;;;;;11.82;7.70;;;2.30;99.90;;;;;;5039207;28;20080;-80
2022/12/15 11:01:30;;;;;;;15.20;7.80;;;2.40;99.90;;;;;;5038319;28;20131;-80
2022/12/15 11:03:56;;;;;;;14.05;7.82;;;2.80;99.90;;;;;;5038460;28;20084;-80
2022/12/15 11:06:35;;;;;;;14.57;8.48;;;2.30;99.90;;;;;;5038756;28;20047;-79
2022/12/15 11:09:32;;;;;;;16.65;8.60;;;2.40;99.90;;;;;;5054449;28;20045;-81
2022/12/15 11:14:45;;;;;;;14.27;7.97;;;2.40;99.90;;;;;;5020597;28;20045;-82
2022/12/15 11:17:20;;;;;;;14.65;7.95;;;2.50;99.90;;;;;;5034597;28;20060;-80
2022/12/15 11:19:52;;;;;;;16.48;8.50;;;2.60;99.90;;;;;;5034505;28;20056;-80
2022/12/15 11:22:34;;;;;;;18.20;8.98;;;2.70;99.90;;;;;;5034563;28;20444;-81
2022/12/15 11:28:45;;;;;;;14.63;6.90;;;3.00;99.90;;;;;;5034241;28;20106;-81
2022/12/15 11:31:30;;;;;;;12.60;6.47;;;3.50;99.90;;;;;;5032816;28;20037;-80
2022/12/15 11:33:56;;;;;;;11.35;6.93;;;4.80;99.90;;;;;;5032773;28;20046;-80
2022/12/15 11:36:37;;;;;;;12.73;6.35;;;3.90;99.90;;;;;;4999883;28;20454;-80
2022/12/15 11:39:25;;;;;;;11.93;6.53;;;4.30;99.90;;;;;;5032474;28;20124;-80
2022/12/15 11:42:21;;;;;;;10.60;7.20;;;4.60;99.90;;;;;;5032093;28;20053;-81
2022/12/15 11:45:04;;;;;;;10.55;7.03;;;4.70;99.90;;;;;;5049190;28;20045;-81
2022/12/15 11:47:44;;;;;;;12.40;7.03;;;4.80;99.90;;;;;;5032191;28;20066;-79
2022/12/15 11:50:42;;;;;;;15.53;7.70;;;4.80;99.90;;;;;;5032567;28;20472;-80
2022/12/15 11:53:22;;;;;;;13.48;7.00;;;5.00;99.90;;;;;;5015843;28;20045;-80
2022/12/15 11:56:20;;;;;;;10.52;6.32;;;5.10;99.90;;;;;;5032064;28;20104;-82
2022/12/15 11:59:16;;;;;;;13.18;7.30;;;5.20;99.90;;;;;;5015895;28;20126;-81
2022/12/15 12:01:45;;;;;;;10.60;6.68;;;5.30;99.90;;;;;;5048775;28;20050;-81
2022/12/15 12:04:23;;;;;;;9.63;6.20;;;5.50;99.90;;;;;;5031789;28;20058;-88
2022/12/15 12:07:21;;;;;;;10.57;5.50;;;5.70;99.90;;;;;;5015985;28;20037;-83
2022/12/15 12:10:21;;;;;;;9.30;5.57;;;5.60;99.90;;;;;;4972895;28;20383;-82
2022/12/15 12:13:08;;;;;;;10.18;5.75;;;5.70;99.90;;;;;;4991016;28;20057;-83
2022/12/15 12:15:41;;;;;;;13.20;6.28;;;6.00;99.90;;;;;;5015543;28;20056;-84
2022/12/15 12:18:36;;;;;;;12.93;6.90;;;6.40;99.90;;;;;;5031496;28;20049;-82
2022/12/15 12:21:09;;;;;;;11.80;6.40;;;6.60;99.90;;;;;;4687449;28;10000120;-85
2022/12/15 12:23:48;;;;;;;11.50;6.88;;;6.50;99.90;;;;;;5035545;28;20451;-82
2022/12/15 12:26:25;;;;;;;10.52;6.90;;;6.70;99.90;;;;;;5051691;28;20041;-82
2022/12/15 12:29:18;;;;;;;14.20;6.75;;;6.80;99.90;;;;;;5051412;28;20048;-82
2022/12/15 12:31:52;;;;;;;11.55;6.57;;;6.80;99.90;;;;;;5035141;28;20045;-85
2022/12/15 12:34:29;;;;;;;12.02;6.60;;;6.80;99.90;;;;;;5051924;28;20459;-83
2022/12/15 12:37:24;;;;;;;15.27;6.70;;;6.90;99.90;;;;;;5051308;28;20045;-82
2022/12/15 12:39:52;;;;;;;11.95;6.68;;;7.00;99.90;;;;;;5031566;28;20524;-81
2022/12/15 12:42:35;;;;;;;9.65;6.53;;;6.90;99.90;;;;;;5053405;28;20471;-82
2022/12/15 12:45:01;;;;;;;11.48;6.20;;;6.70;1.00;;;;;;5052959;28;20179;-82
2022/12/15 12:47:34;;;;;;;9.80;6.15;;;6.70;99.90;;;;;;5036808;28;20107;-81
2022/12/15 12:50:30;;;;;;;12.50;5.93;;;6.70;1.00;;;;;;5036294;28;20098;-82
2022/12/15 12:52:59;;;;;;;9.48;5.85;;;6.70;99.90;;;;;;5053566;28;20494;-83
2022/12/15 12:55:27;;;;;;;13.88;6.20;;;6.80;99.90;;;;;;5053677;28;20037;-82
2022/12/15 12:57:54;;;;;;;11.05;6.30;;;6.90;99.90;;;;;;5053381;28;20044;-81
2022/12/15 13:00:31;;;;;;;14.73;6.28;;;6.80;43.70;;;;;;5036785;28;20126;-81
2022/12/15 13:03:17;;;;;;;13.25;6.97;;;6.80;79.10;;;;;;5053298;28;20044;-83
2022/12/15 13:05:45;;;;;;;11.48;6.47;;;6.80;1.00;;;;;;5036684;28;20040;-81
2022/12/15 13:08:14;;;;;;;9.75;5.72;;;7.20;99.90;;;;;;5036232;28;20044;-80
2022/12/15 13:10:42;;;;;;;14.68;6.15;;;7.20;99.90;;;;;;5053314;28;20041;-81
2022/12/15 13:13:15;;;;;;;10.07;5.18;;;7.30;76.80;;;;;;5052648;28;20041;-82
2022/12/15 13:15:45;;;;;;;10.35;6.00;;;7.20;99.90;;;;;;5053131;28;20495;-83
2022/12/15 13:18:14;;;;;;;9.57;5.63;;;7.20;1.00;;;;;;5034344;28;20522;-81
2022/12/15 13:20:41;;;;;;;11.55;6.38;;;7.20;1.00;;;;;;5052439;28;20360;-82
2022/12/15 13:23:35;;;;;;;11.85;5.75;;;7.10;1.00;;;;;;5035928;28;20044;-84
2022/12/15 13:26:10;;;;;;;9.10;5.00;;;7.30;1.00;;;;;;5033594;28;20407;-83
2022/12/15 13:28:38;;;;;;;12.50;5.57;;;7.60;99.90;;;;;;5036195;28;20457;-82
2022/12/15 13:31:17;;;;;;;12.27;5.80;;;7.60;99.90;;;;;;5035530;28;20055;-81
2022/12/15 13:33:49;;;;;;;8.73;5.18;;;7.70;1.00;;;;;;5035954;28;20467;-82
2022/12/15 13:36:36;;;;;;;10.82;5.70;;;7.90;29.70;;;;;;5052226;28;20049;-83
2022/12/15 13:39:11;;;;;;;10.27;5.50;;;8.00;99.90;;;;;;5035820;28;20041;-81
2022/12/15 13:41:41;;;;;;;8.93;5.68;;;8.00;1.00;;;;;;5052732;28;20429;-81
2022/12/15 13:44:27;;;;;;;9.38;5.97;;;8.10;1.00;;;;;;5035364;28;20041;-81
2022/12/15 13:46:55;;;;;;;9.40;6.05;;;8.20;99.90;;;;;;5035908;28;20497;-81
2022/12/15 13:50:06;;;;;;;11.57;6.57;;;8.60;99.90;;;;;;5035357;28;20041;-81
2022/12/15 13:52:53;;;;;;;9.88;6.05;;;8.50;99.90;;;;;;5052417;28;20045;-81
2022/12/15 13:55:24;;;;;;;12.70;6.28;;;8.40;1.00;;;;;;5035722;28;20095;-82
2022/12/15 13:57:57;;;;;;;11.00;6.18;;;8.40;1.00;;;;;;5069228;28;20045;-81
2022/12/15 14:00:23;;;;;;;12.65;6.88;;;8.00;99.90;;;;;;5035713;28;20131;-81
2022/12/15 14:02:49;;;;;;;7.47;6.43;;;7.70;99.90;;;;;;5051691;28;20049;-81
2022/12/15 14:05:33;;;;;;;7.90;5.88;;;7.60;99.90;;;;;;5035739;28;20045;-81
2022/12/15 14:08:01;;;;;;;11.57;7.18;;;7.40;99.90;;;;;;5035544;28;20087;-80
2022/12/15 14:10:46;;;;;;;13.50;7.53;;;7.20;99.90;;;;;;5036191;28;20041;-82
2022/12/15 14:13:32;;;;;;;13.80;6.55;;;7.40;1.00;;;;;;5036561;28;20391;-81
2022/12/15 14:16:19;;;;;;;10.02;6.80;;;7.30;1.00;;;;;;5036500;28;20048;-81
2022/12/15 14:19:01;;;;;;;14.80;7.30;;;7.30;39.90;;;;;;5035702;28;20049;-81
2022/12/15 14:21:28;;;;;;;13.00;6.95;;;7.20;99.90;;;;;;5053633;28;20052;-81
2022/12/15 14:23:56;;;;;;;10.93;6.63;;;7.10;49.40;;;;;;5018704;28;20095;-81
2022/12/15 14:26:30;;;;;;;13.57;7.72;;;6.90;1.00;;;;;;5051170;28;20045;-80
2022/12/15 14:29:01;;;;;;;12.70;7.78;;;6.70;7.70;;;;;;5036125;28;20131;-85
2022/12/15 14:31:27;;;;;;;13.30;7.53;;;6.60;54.00;;;;;;5055380;28;20339;-81
2022/12/15 14:34:05;;;;;;;11.43;7.03;;;6.40;99.90;;;;;;5040138;28;20048;-79
2022/12/15 14:36:32;;;;;;;12.45;7.80;;;6.20;1.00;;;;;;5037809;28;20491;-84
2022/12/15 14:39:05;;;;;;;12.85;8.20;;;6.00;99.90;;;;;;5039082;28;20052;-81
2022/12/15 14:41:37;;;;;;;13.98;8.48;;;5.70;99.90;;;;;;5038725;28;20057;-81
2022/12/15 14:44:18;;;;;;;12.27;8.00;;;5.60;99.90;;;;;;5038932;28;20045;-82
2022/12/15 14:46:46;;;;;;;14.52;8.13;;;5.40;99.90;;;;;;5054068;28;20392;-80
2022/12/15 14:49:19;;;;;;;16.33;8.52;;;5.00;99.90;;;;;;5037947;28;20045;-80
2022/12/15 14:51:50;;;;;;;14.30;7.72;;;4.70;1.00;;;;;;5055148;28;20077;-82
2022/12/15 14:54:37;;;;;;;19.88;9.10;;;4.50;2.00;;;;;;5054872;28;20053;-82
2022/12/15 14:57:12;;;;;;;16.58;8.75;;;4.30;99.90;;;;;;5037760;28;20390;-81
2022/12/15 14:59:42;;;;;;;15.52;9.73;;;4.00;99.90;;;;;;5054228;28;20044;-82
2022/12/15 15:02:08;;;;;;;17.58;9.68;;;4.90;99.90;;;;;;5038080;28;20041;-82
2022/12/15 15:04:34;;;;;;;17.00;10.13;;;3.60;1.00;;;;;;5037395;28;20613;-81
2022/12/15 15:07:03;;;;;;;17.35;9.63;;;3.40;1.00;;;;;;4671665;28;9999734;-81
2022/12/15 15:09:32;;;;;;;17.70;10.43;;;3.20;30.00;;;;;;5034236;28;20082;-84
2022/12/15 15:12:01;;;;;;;15.27;10.55;;;3.00;99.90;;;;;;5034144;28;20044;-81
2022/12/15 15:14:36;;;;;;;19.60;10.27;;;2.80;99.90;;;;;;5017829;28;20399;-83
2022/12/15 15:17:15;;;;;;;18.77;10.77;;;2.70;99.90;;;;;;5033582;28;20057;-82
2022/12/15 15:19:51;;;;;;;24.38;11.95;;;2.60;99.90;;;;;;5017684;28;20506;-82
2022/12/15 15:22:39;;;;;;;20.10;11.98;;;2.50;99.90;;;;;;5033242;28;20183;-81
2022/12/15 15:25:55;;;;;;;20.67;12.23;;;2.40;99.90;;;;;;5017900;28;20038;-82
2022/12/15 15:28:28;;;;;;;22.75;12.13;;;2.40;99.90;;;;;;5007875;28;20049;-82
2022/12/15 15:31:04;;;;;;;19.25;11.35;;;2.20;99.90;;;;;;5016607;28;20049;-81